Time;durP1;ratioP1;P1;durP2;ratioP2;P2;SDS_P1;SDS_P2;PMS_P1;PMS_P2;Temp;Humidity;BMP_temperature;BMP_pressure;BME280_temperature;BME280_humidity;BME280_pressure;Samples;Min_cycle;Max_cycle;Signal;HPM_P1;HPM_P2
2023/09/26 00:01:07;;;;;;;;;;;;;;;27.93;39.86;100957.19;5076577;28;1119;-24
2023/09/26 00:03:32;;;;;;;;;;;;;;;28.05;39.33;100959.44;5067500;28;1150;-24
2023/09/26 00:05:58;;;;;;;;;;;;;;;27.99;39.41;100955.63;5072754;28;1910;-23
2023/09/26 00:08:23;;;;;;;;;;;;;;;27.91;39.22;100955.72;5075609;28;1023;-24
2023/09/26 00:10:49;;;;;;;;;;;;;;;28.03;39.45;100956.94;5076615;28;1060;-24
2023/09/26 00:13:14;;;;;;;;;;;;;;;27.97;39.91;100952.28;5076795;28;1015;-24
2023/09/26 00:15:40;;;;;;;;;;;;;;;28.00;39.18;100941.09;5075634;28;1113;-24
2023/09/26 00:18:06;;;;;;;;;;;;;;;27.99;39.28;100953.75;5063144;28;1079;-24
2023/09/26 00:20:34;;;;;;;;;;;;;;;27.99;39.32;100952.94;5075693;28;1153;-24
2023/09/26 00:23:00;;;;;;;;;;;;;;;27.98;39.32;100953.94;5064527;28;1067;-24
2023/09/26 00:25:25;;;;;;;;;;;;;;;28.06;39.20;100961.16;5075061;28;1910;-24
2023/09/26 00:27:52;;;;;;;;;;;;;;;27.99;39.46;100953.75;5064345;28;1151;-24
2023/09/26 00:30:18;;;;;;;;;;;;;;;28.03;39.40;100953.41;5075325;28;1070;-24
2023/09/26 00:32:44;;;;;;;;;;;;;;;27.91;39.62;100958.41;5063819;28;1171;-24
2023/09/26 00:35:11;;;;;;;;;;;;;;;27.98;39.12;100965.59;5076196;28;1087;-24
2023/09/26 00:37:37;;;;;;;;;;;;;;;27.99;39.23;100967.28;5058532;28;1294;-24
2023/09/26 00:40:03;;;;;;;;;;;;;;;27.98;39.29;100960.19;5075784;28;1112;-24
2023/09/26 00:42:29;;;;;;;;;;;;;;;27.99;39.22;100958.34;5076105;28;888;-24
2023/09/26 00:44:55;;;;;;;;;;;;;;;28.01;39.46;100958.97;5058086;28;1087;-24
2023/09/26 00:47:20;;;;;;;;;;;;;;;27.98;39.49;100957.50;5075743;28;1981;-24
2023/09/26 00:49:46;;;;;;;;;;;;;;;27.94;39.60;100960.75;5057506;28;916;-24
2023/09/26 00:52:11;;;;;;;;;;;;;;;27.90;39.46;100964.84;5058178;28;1115;-24
2023/09/26 00:54:37;;;;;;;;;;;;;;;27.95;39.56;100968.69;5075491;28;1039;-24
2023/09/26 00:57:02;;;;;;;;;;;;;;;27.80;39.72;100967.78;5063219;28;1063;-23
2023/09/26 00:59:28;;;;;;;;;;;;;;;27.98;39.47;100964.75;5074143;28;1083;-24
2023/09/26 01:01:53;;;;;;;;;;;;;;;27.93;39.60;100969.88;5057355;28;1225;-24
2023/09/26 01:04:19;;;;;;;;;;;;;;;27.90;39.65;100968.38;5075942;28;1131;-24
2023/09/26 01:06:46;;;;;;;;;;;;;;;27.83;39.85;100968.28;5065362;28;1914;-24
2023/09/26 01:09:12;;;;;;;;;;;;;;;27.91;39.89;100964.66;5055928;28;1167;-24
2023/09/26 01:11:38;;;;;;;;;;;;;;;27.74;39.98;100969.38;5064371;28;1222;-24
2023/09/26 01:14:03;;;;;;;;;;;;;;;27.90;39.61;100968.38;5058220;28;1143;-24
2023/09/26 01:16:29;;;;;;;;;;;;;;;27.84;39.68;100969.13;5075741;28;1142;-24
2023/09/26 01:18:55;;;;;;;;;;;;;;;27.85;39.57;100965.38;5075762;28;1054;-24
2023/09/26 01:21:21;;;;;;;;;;;;;;;27.94;39.14;100955.34;5075886;28;1087;-24
2023/09/26 01:23:51;;;;;;;;;;;;;;;27.90;39.69;100957.56;5056165;28;1389;-24
2023/09/26 01:26:17;;;;;;;;;;;;;;;27.96;39.30;100964.13;5046681;28;1968;-24
2023/09/26 01:28:42;;;;;;;;;;;;;;;27.79;40.02;100964.28;5074252;28;1162;-24
2023/09/26 01:31:08;;;;;;;;;;;;;;;27.89;39.50;100955.91;5066403;28;873;-24
2023/09/26 01:33:34;;;;;;;;;;;;;;;27.95;39.39;100957.88;5075873;28;1099;-24
2023/09/26 01:35:59;;;;;;;;;;;;;;;27.96;39.31;100956.00;5049735;28;1145;-24
2023/09/26 01:38:25;;;;;;;;;;;;;;;27.89;39.18;100952.34;5056781;28;1072;-24
2023/09/26 01:40:51;;;;;;;;;;;;;;;27.84;39.46;100950.19;5075282;28;1101;-24
2023/09/26 01:43:16;;;;;;;;;;;;;;;27.91;38.96;100951.13;5075729;28;1186;-24
2023/09/26 01:45:42;;;;;;;;;;;;;;;27.96;39.20;100954.13;5057515;28;1979;-24
2023/09/26 01:48:09;;;;;;;;;;;;;;;27.94;38.89;100948.09;5075045;28;1134;-24
2023/09/26 01:50:35;;;;;;;;;;;;;;;27.94;39.32;100952.66;5049865;28;1451;-24
2023/09/26 01:53:01;;;;;;;;;;;;;;;27.98;39.08;100946.69;5056682;28;1083;-24
2023/09/26 01:55:26;;;;;;;;;;;;;;;27.88;39.04;100954.19;5075077;28;884;-24
2023/09/26 01:57:52;;;;;;;;;;;;;;;28.01;38.38;100953.56;5057569;28;1450;-24
2023/09/26 02:00:19;;;;;;;;;;;;;;;27.97;39.23;100950.41;5059603;28;1352;-24
2023/09/26 02:02:45;;;;;;;;;;;;;;;27.97;39.32;100950.41;5065147;28;1093;-24
2023/09/26 02:05:11;;;;;;;;;;;;;;;27.85;39.23;100957.28;5078816;28;1038;-24
2023/09/26 02:07:37;;;;;;;;;;;;;;;27.84;39.64;100958.31;5060552;28;1913;-24
2023/09/26 02:10:03;;;;;;;;;;;;;;;27.90;39.38;100964.84;5070678;28;1107;-24
2023/09/26 02:12:33;;;;;;;;;;;;;;;27.90;39.53;100959.44;5054013;28;1206;-24
2023/09/26 02:15:01;;;;;;;;;;;;;;;27.92;39.09;100968.19;5059107;28;1059;-24
2023/09/26 02:17:26;;;;;;;;;;;;;;;27.89;39.17;100969.41;5074669;28;1233;-24
2023/09/26 02:19:52;;;;;;;;;;;;;;;27.90;38.93;100968.38;5078899;28;884;-24
2023/09/26 02:22:17;;;;;;;;;;;;;;;27.89;38.91;100968.56;5060568;28;1091;-24
2023/09/26 02:24:43;;;;;;;;;;;;;;;27.92;39.17;100973.59;5078710;28;1126;-24
2023/09/26 02:27:09;;;;;;;;;;;;;;;27.91;38.79;100966.53;5078677;28;1910;-24
2023/09/26 02:29:35;;;;;;;;;;;;;;;27.81;39.58;100966.78;5078762;28;1096;-24
2023/09/26 02:32:01;;;;;;;;;;;;;;;27.87;39.03;100972.31;5059723;28;1241;-24
2023/09/26 02:34:26;;;;;;;;;;;;;;;27.80;39.10;100975.91;5078752;28;1129;-24
2023/09/26 02:36:52;;;;;;;;;;;;;;;27.91;39.16;100971.94;5078560;28;1109;-24
2023/09/26 02:39:17;;;;;;;;;;;;;;;27.85;39.64;100970.78;5078379;28;1143;-24
2023/09/26 02:41:43;;;;;;;;;;;;;;;27.83;39.24;100978.25;5060461;28;1070;-23
2023/09/26 02:44:10;;;;;;;;;;;;;;;27.84;39.44;100972.66;5078069;28;947;-23
2023/09/26 02:46:35;;;;;;;;;;;;;;;27.94;39.04;100966.16;5078153;28;1981;-23
2023/09/26 02:49:01;;;;;;;;;;;;;;;27.90;39.30;100967.53;5078489;28;1070;-23
2023/09/26 02:51:27;;;;;;;;;;;;;;;27.89;39.04;100977.53;5078305;28;1071;-23
2023/09/26 02:53:52;;;;;;;;;;;;;;;27.95;38.90;100978.66;5078437;28;1067;-23
2023/09/26 02:56:18;;;;;;;;;;;;;;;27.86;39.16;100980.59;5077914;28;1160;-23
2023/09/26 02:58:43;;;;;;;;;;;;;;;27.95;39.15;100973.25;5060466;28;1126;-23
2023/09/26 03:01:14;;;;;;;;;;;;;;;27.86;39.36;100978.72;5057192;28;1186;-23
2023/09/26 03:03:39;;;;;;;;;;;;;;;27.93;38.88;100977.97;5049578;28;1131;-23
2023/09/26 03:06:05;;;;;;;;;;;;;;;27.84;39.44;100980.75;5077716;28;1985;-24
2023/09/26 03:08:30;;;;;;;;;;;;;;;27.93;39.21;100984.25;5077668;28;1075;-23
2023/09/26 03:10:59;;;;;;;;;;;;;;;27.87;39.23;100976.88;5077643;28;1178;-23
2023/09/26 03:13:24;;;;;;;;;;;;;;;27.89;38.69;100988.34;5077726;28;1040;-24
2023/09/26 03:15:56;;;;;;;;;;;;;;;27.95;38.78;100990.31;5078892;28;2542;-23
2023/09/26 03:18:22;;;;;;;;;;;;;;;28.00;39.45;100987.06;5070780;28;2207;-23
2023/09/26 03:20:47;;;;;;;;;;;;;;;27.89;38.02;100995.59;5073862;28;1881;-24
2023/09/26 03:23:13;;;;;;;;;;;;;;;27.75;38.47;100998.06;5071385;28;1808;-24
2023/09/26 03:25:39;;;;;;;;;;;;;;;27.50;38.56;101001.78;5058684;28;1961;-25
2023/09/26 03:28:04;;;;;;;;;;;;;;;27.48;38.40;101003.81;5076869;28;1817;-25
2023/09/26 03:30:30;;;;;;;;;;;;;;;27.51;38.73;101008.84;5077048;28;2103;-24
2023/09/26 03:32:55;;;;;;;;;;;;;;;27.49;38.40;101005.50;5079129;28;2249;-24
2023/09/26 03:35:21;;;;;;;;;;;;;;;27.18;39.11;101005.50;5060098;28;1417;-23
2023/09/26 03:37:47;;;;;;;;;;;;;;;27.08;39.83;101003.03;5056049;28;1120;-23
2023/09/26 03:40:13;;;;;;;;;;;;;;;27.44;40.19;101013.31;5058707;28;1035;-24
2023/09/26 03:42:38;;;;;;;;;;;;;;;25.76;46.02;101012.03;5077370;28;1131;-23
2023/09/26 03:45:04;;;;;;;;;;;;;;;25.36;46.34;101014.47;5076278;28;891;-23
2023/09/26 03:47:29;;;;;;;;;;;;;;;24.83;48.23;101022.66;5076667;28;1910;-23
2023/09/26 03:49:55;;;;;;;;;;;;;;;24.91;47.89;101020.03;5076408;28;1107;-23
2023/09/26 03:52:20;;;;;;;;;;;;;;;25.60;44.95;101017.38;5076821;28;1092;-23
2023/09/26 03:54:46;;;;;;;;;;;;;;;25.97;44.84;101018.78;5076394;28;1210;-22
2023/09/26 03:57:11;;;;;;;;;;;;;;;26.10;44.09;101030.91;5076404;28;896;-22
2023/09/26 03:59:37;;;;;;;;;;;;;;;25.96;44.23;101027.88;5076111;28;1066;-22
2023/09/26 04:02:03;;;;;;;;;;;;;;;25.91;44.23;101031.06;5076650;28;2504;-22
2023/09/26 04:04:34;;;;;;;;;;;;;;;26.21;43.56;101033.25;5074418;28;1187;-22
2023/09/26 04:07:03;;;;;;;;;;;;;;;26.25;43.45;101029.22;5065611;28;1992;-22
2023/09/26 04:09:29;;;;;;;;;;;;;;;26.17;43.46;101034.63;5075720;28;1088;-22
2023/09/26 04:11:54;;;;;;;;;;;;;;;25.75;45.20;101029.22;5076054;28;1195;-24
2023/09/26 04:14:20;;;;;;;;;;;;;;;25.50;45.19;101037.22;5075630;28;975;-22
2023/09/26 04:16:45;;;;;;;;;;;;;;;25.51;45.24;101044.28;5075793;28;1064;-22
2023/09/26 04:19:11;;;;;;;;;;;;;;;24.97;47.16;101040.09;5076293;28;1059;-22
2023/09/26 04:21:37;;;;;;;;;;;;;;;24.76;48.76;101051.19;5075908;28;1393;-22
2023/09/26 04:24:04;;;;;;;;;;;;;;;24.68;48.55;101044.78;5075957;28;1044;-22
2023/09/26 04:26:29;;;;;;;;;;;;;;;24.38;49.97;101046.09;5075827;28;1993;-22
2023/09/26 04:28:55;;;;;;;;;;;;;;;24.42;48.10;101045.63;5075751;28;1125;-22
2023/09/26 04:31:20;;;;;;;;;;;;;;;24.36;49.74;101040.06;5075974;28;2373;-22
2023/09/26 04:33:47;;;;;;;;;;;;;;;24.46;47.05;101049.69;5059335;28;1141;-24
2023/09/26 04:36:13;;;;;;;;;;;;;;;24.83;48.02;101047.72;5066214;28;1159;-22
2023/09/26 04:38:38;;;;;;;;;;;;;;;24.68;48.43;101044.78;5075966;28;1183;-21
2023/09/26 04:41:04;;;;;;;;;;;;;;;24.89;47.56;101054.28;5075432;28;1032;-22
2023/09/26 04:43:32;;;;;;;;;;;;;;;24.96;46.98;101046.47;5074863;28;1036;-22
2023/09/26 04:45:58;;;;;;;;;;;;;;;25.50;44.56;101048.00;5075738;28;1902;-22
2023/09/26 04:48:23;;;;;;;;;;;;;;;25.46;45.39;101048.50;5075648;28;1057;-22
2023/09/26 04:50:49;;;;;;;;;;;;;;;25.25;46.77;101045.25;5075991;28;1045;-22
2023/09/26 04:53:14;;;;;;;;;;;;;;;25.24;47.29;101053.50;5075605;28;972;-22
2023/09/26 04:55:41;;;;;;;;;;;;;;;25.44;46.44;101051.38;5075731;28;1098;-22
2023/09/26 04:58:06;;;;;;;;;;;;;;;25.73;46.39;101065.41;5075483;28;1136;-22
2023/09/26 05:00:32;;;;;;;;;;;;;;;25.97;43.20;101058.38;5075574;28;1121;-22
2023/09/26 05:02:57;;;;;;;;;;;;;;;25.97;44.90;101061.06;5071714;28;2621;-22
2023/09/26 05:05:26;;;;;;;;;;;;;;;25.74;45.83;101067.13;5055494;28;1134;-22
2023/09/26 05:07:52;;;;;;;;;;;;;;;25.81;45.57;101060.03;5072887;28;1211;-24
2023/09/26 05:10:17;;;;;;;;;;;;;;;26.35;44.38;101064.13;5075776;28;1111;-22
2023/09/26 05:12:43;;;;;;;;;;;;;;;25.99;45.78;101059.06;5075502;28;1090;-24
2023/09/26 05:15:12;;;;;;;;;;;;;;;26.27;45.12;101069.50;5075653;28;1166;-25
2023/09/26 05:17:41;;;;;;;;;;;;;;;26.34;44.14;101059.72;5075364;28;1090;-24
2023/09/26 05:20:08;;;;;;;;;;;;;;;26.68;43.49;101067.75;5074981;28;1094;-24
2023/09/26 05:22:33;;;;;;;;;;;;;;;26.76;43.87;101068.59;5075161;28;1039;-24
2023/09/26 05:24:59;;;;;;;;;;;;;;;26.72;43.77;101072.66;5075394;28;1135;-24
2023/09/26 05:27:24;;;;;;;;;;;;;;;26.83;44.47;101071.44;5075299;28;1989;-24
2023/09/26 05:29:50;;;;;;;;;;;;;;;26.93;41.96;101075.78;5075101;28;1110;-24
2023/09/26 05:32:15;;;;;;;;;;;;;;;26.86;43.23;101071.09;5074780;28;1881;-24
2023/09/26 05:34:41;;;;;;;;;;;;;;;27.09;42.47;101070.34;5076515;28;1011;-24
2023/09/26 05:37:06;;;;;;;;;;;;;;;26.98;44.34;101078.81;5079583;28;1154;-24
2023/09/26 05:39:32;;;;;;;;;;;;;;;26.93;44.31;101070.38;5079270;28;1166;-24
2023/09/26 05:41:57;;;;;;;;;;;;;;;27.20;43.29;101077.25;5065763;28;1082;-24
2023/09/26 05:44:23;;;;;;;;;;;;;;;27.11;44.61;101078.31;5072189;28;1054;-24
2023/09/26 05:46:48;;;;;;;;;;;;;;;27.47;42.40;101076.94;5065861;28;1909;-24
2023/09/26 05:49:14;;;;;;;;;;;;;;;27.50;42.99;101076.59;5067838;28;1018;-24
2023/09/26 05:51:39;;;;;;;;;;;;;;;27.57;42.41;101074.00;5077315;28;1119;-23
2023/09/26 05:54:05;;;;;;;;;;;;;;;27.66;41.51;101078.34;5079077;28;1182;-23
2023/09/26 05:56:30;;;;;;;;;;;;;;;27.60;42.42;101076.34;5078710;28;1031;-24
2023/09/26 05:58:56;;;;;;;;;;;;;;;27.78;41.88;101078.00;5078710;28;1087;-23
2023/09/26 06:01:21;;;;;;;;;;;;;;;27.69;41.88;101074.50;5078690;28;2475;-23
2023/09/26 06:03:47;;;;;;;;;;;;;;;27.69;41.86;101077.19;5078509;28;1154;-23
2023/09/26 06:06:12;;;;;;;;;;;;;;;27.75;42.19;101074.63;5079054;28;1897;-23
2023/09/26 06:08:38;;;;;;;;;;;;;;;27.87;41.74;101076.91;5076860;28;1094;-23
2023/09/26 06:11:04;;;;;;;;;;;;;;;27.83;41.61;101072.84;5078801;28;1158;-23
2023/09/26 06:13:31;;;;;;;;;;;;;;;27.92;41.94;101084.47;5078705;28;1000;-23
2023/09/26 06:15:56;;;;;;;;;;;;;;;27.90;42.16;101083.78;5065200;28;1086;-23
2023/09/26 06:18:22;;;;;;;;;;;;;;;27.96;41.76;101080.38;5078679;28;1032;-24
2023/09/26 06:20:47;;;;;;;;;;;;;;;27.89;41.89;101074.00;5078848;28;1230;-23
2023/09/26 06:23:13;;;;;;;;;;;;;;;27.91;41.92;101074.69;5074671;28;1395;-24
2023/09/26 06:25:38;;;;;;;;;;;;;;;28.13;40.46;101080.25;5064955;28;1914;-23
2023/09/26 06:28:04;;;;;;;;;;;;;;;28.18;41.14;101080.53;5078375;28;1048;-23
2023/09/26 06:30:29;;;;;;;;;;;;;;;28.10;40.45;101074.19;5072267;28;1269;-23
2023/09/26 06:32:55;;;;;;;;;;;;;;;28.19;40.03;101082.22;5076782;28;2696;-23
2023/09/26 06:35:20;;;;;;;;;;;;;;;28.17;41.37;101073.44;5077869;28;1075;-23
2023/09/26 06:37:46;;;;;;;;;;;;;;;28.17;41.08;101078.84;5078150;28;1175;-23
2023/09/26 06:40:11;;;;;;;;;;;;;;;28.07;43.11;101065.59;5077941;28;1145;-23
2023/09/26 06:42:37;;;;;;;;;;;;;;;28.21;41.44;101072.88;5078428;28;1014;-24
2023/09/26 06:45:04;;;;;;;;;;;;;;;28.20;42.07;101068.50;5077657;28;1095;-24
2023/09/26 06:47:29;;;;;;;;;;;;;;;28.39;40.80;101079.03;5077587;28;1902;-23
2023/09/26 06:49:55;;;;;;;;;;;;;;;28.30;41.04;101075.53;5078064;28;1151;-23
2023/09/26 06:52:22;;;;;;;;;;;;;;;28.42;40.71;101067.84;5077567;28;1139;-23
2023/09/26 06:54:48;;;;;;;;;;;;;;;28.48;40.07;101076.06;5077799;28;1074;-23
2023/09/26 06:57:17;;;;;;;;;;;;;;;28.52;39.70;101064.84;5077734;28;1105;-23
2023/09/26 06:59:47;;;;;;;;;;;;;;;28.53;38.63;101061.97;5064735;28;1148;-23
2023/09/26 07:02:12;;;;;;;;;;;;;;;28.48;40.69;101067.09;5077581;28;2284;-22
2023/09/26 07:04:38;;;;;;;;;;;;;;;28.49;39.08;101063.38;5077674;28;1254;-23
2023/09/26 07:07:03;;;;;;;;;;;;;;;28.58;37.92;101064.97;5075538;28;1927;-24
2023/09/26 07:09:29;;;;;;;;;;;;;;;28.43;38.25;101026.22;5076735;28;1209;-24
2023/09/26 07:11:55;;;;;;;;;;;;;;;28.74;38.14;101068.53;5077351;28;1296;-23
2023/09/26 07:14:20;;;;;;;;;;;;;;;28.81;38.30;101069.44;5075796;28;1067;-23
2023/09/26 07:16:47;;;;;;;;;;;;;;;28.82;37.78;101073.00;5077602;28;1288;-23
2023/09/26 07:19:12;;;;;;;;;;;;;;;28.88;37.24;101071.44;5073413;28;1062;-22
2023/09/26 07:21:38;;;;;;;;;;;;;;;28.94;36.84;101068.81;5067734;28;1249;-22
2023/09/26 07:24:04;;;;;;;;;;;;;;;29.03;37.02;101077.69;5077303;28;1375;-22
2023/09/26 07:26:31;;;;;;;;;;;;;;;29.08;36.84;101074.41;5076855;28;1977;-22
2023/09/26 07:28:56;;;;;;;;;;;;;;;29.12;36.54;101077.59;5076822;28;1363;-22
2023/09/26 07:31:23;;;;;;;;;;;;;;;29.20;36.38;101088.31;5075807;28;2403;-22
2023/09/26 07:33:49;;;;;;;;;;;;;;;29.14;36.43;101091.78;5074848;28;1348;-22
2023/09/26 07:36:14;;;;;;;;;;;;;;;29.16;36.15;101085.13;5075642;28;1417;-23
2023/09/26 07:38:40;;;;;;;;;;;;;;;29.13;36.54;101088.22;5073962;28;1380;-23
2023/09/26 07:41:05;;;;;;;;;;;;;;;29.17;36.12;101092.25;5064089;28;1102;-22
2023/09/26 07:43:32;;;;;;;;;;;;;;;29.31;35.57;101101.38;5075879;28;1223;-24
2023/09/26 07:46:10;;;;;;;;;;;;;;;29.22;35.93;101097.09;5075193;28;2115;-22
2023/09/26 07:48:36;;;;;;;;;;;;;;;29.23;35.86;101100.66;5064270;28;1052;-25
2023/09/26 07:51:02;;;;;;;;;;;;;;;29.30;35.89;101094.28;5076175;28;1379;-22
2023/09/26 07:53:28;;;;;;;;;;;;;;;29.35;35.99;101104.53;5076498;28;1019;-22
2023/09/26 07:55:54;;;;;;;;;;;;;;;29.33;36.11;101099.31;5076053;28;1332;-22
2023/09/26 07:58:20;;;;;;;;;;;;;;;29.42;35.86;101096.50;5075194;28;1000;-22
2023/09/26 08:00:45;;;;;;;;;;;;;;;29.45;35.60;101096.13;5075606;28;2190;-22
2023/09/26 08:03:11;;;;;;;;;;;;;;;29.52;35.56;101094.34;5076425;28;1147;-23
2023/09/26 08:05:36;;;;;;;;;;;;;;;29.55;35.78;101085.81;5062524;28;1914;-24
2023/09/26 08:08:04;;;;;;;;;;;;;;;29.60;35.46;101093.41;5076047;28;1335;-22
2023/09/26 08:10:35;;;;;;;;;;;;;;;29.64;35.66;101080.31;5072771;28;1316;-22
2023/09/26 08:13:01;;;;;;;;;;;;;;;29.72;35.08;101084.75;5076074;28;1195;-24
2023/09/26 08:15:30;;;;;;;;;;;;;;;29.64;35.41;101092.00;5076502;28;1219;-23
2023/09/26 08:17:56;;;;;;;;;;;;;;;29.61;35.44;101089.66;5066143;28;1145;-23
2023/09/26 08:20:23;;;;;;;;;;;;;;;29.76;35.24;101092.31;5072819;28;1044;-25
2023/09/26 08:22:49;;;;;;;;;;;;;;;29.74;35.00;101093.53;5073413;28;1194;-23
2023/09/26 08:25:15;;;;;;;;;;;;;;;29.73;35.34;101086.44;5072941;28;1558;-23
2023/09/26 08:27:40;;;;;;;;;;;;;;;29.83;35.11;101089.66;5073590;28;1926;-23
2023/09/26 08:30:08;;;;;;;;;;;;;;;29.87;34.73;101090.13;5073464;28;1274;-23
2023/09/26 08:32:33;;;;;;;;;;;;;;;29.91;34.69;101094.13;5073633;28;2351;-24
2023/09/26 08:34:59;;;;;;;;;;;;;;;29.78;34.96;101087.53;5072653;28;1287;-23
2023/09/26 08:37:25;;;;;;;;;;;;;;;29.80;35.05;101095.47;5071405;28;1324;-23
2023/09/26 08:39:51;;;;;;;;;;;;;;;29.72;34.73;101093.72;5072821;28;1546;-22
2023/09/26 08:42:27;;;;;;;;;;;;;;;29.69;34.83;101089.56;5071709;28;1213;-24
2023/09/26 08:44:55;;;;;;;;;;;;;;;29.82;34.39;101094.25;5071233;28;1497;-22
2023/09/26 08:47:24;;;;;;;;;;;;;;;29.93;33.95;101098.31;5053771;28;1907;-22
2023/09/26 08:49:51;;;;;;;;;;;;;;;29.94;34.02;101091.03;5075839;28;920;-22
2023/09/26 08:52:17;;;;;;;;;;;;;;;29.97;34.03;101085.22;5057440;28;1067;-22
2023/09/26 08:54:42;;;;;;;;;;;;;;;29.90;34.29;101098.72;5075632;28;1494;-22
2023/09/26 08:57:08;;;;;;;;;;;;;;;30.01;34.15;101088.38;5075323;28;1007;-22
2023/09/26 08:59:33;;;;;;;;;;;;;;;29.95;34.14;101095.41;5075315;28;885;-22
2023/09/26 09:01:59;;;;;;;;;;;;;;;30.12;33.65;101098.72;5071947;28;1821;-23
2023/09/26 09:04:24;;;;;;;;;;;;;;;30.18;33.81;101089.78;5061941;28;1354;-23
2023/09/26 09:07:00;;;;;;;;;;;;;;;30.22;33.90;101089.41;5070449;28;1906;-23
2023/09/26 09:09:25;;;;;;;;;;;;;;;30.31;33.89;101083.66;5079484;28;1134;-23
2023/09/26 09:11:50;;;;;;;;;;;;;;;30.38;33.68;101086.41;5082281;28;1288;-23
2023/09/26 09:14:20;;;;;;;;;;;;;;;30.58;33.74;101079.47;5068965;28;1144;-23
2023/09/26 09:16:55;;;;;;;;;;;;;;;30.38;33.62;101091.03;5063761;28;1336;-23
2023/09/26 09:19:20;;;;;;;;;;;;;;;30.30;33.95;101100.97;5081378;28;1297;-23
2023/09/26 09:21:46;;;;;;;;;;;;;;;30.38;33.92;101094.56;5081281;28;1257;-23
2023/09/26 09:24:12;;;;;;;;;;;;;;;30.56;33.45;101095.94;5068997;28;1104;-23
2023/09/26 09:26:37;;;;;;;;;;;;;;;30.67;33.84;101102.69;5081994;28;1983;-23
2023/09/26 09:29:19;;;;;;;;;;;;;;;30.57;33.68;101110.34;5081268;28;1304;-23
2023/09/26 09:31:44;;;;;;;;;;;;;;;30.60;33.45;101104.50;5081425;28;2364;-22
2023/09/26 09:34:10;;;;;;;;;;;;;;;30.67;33.91;101103.53;5081548;28;1312;-23
2023/09/26 09:36:37;;;;;;;;;;;;;;;30.62;33.57;101102.44;5081487;28;1352;-23
2023/09/26 09:39:02;;;;;;;;;;;;;;;30.72;33.78;101115.66;5072566;28;1070;-24
2023/09/26 09:41:28;;;;;;;;;;;;;;;30.94;33.00;101112.91;5060472;28;1080;-22
2023/09/26 09:43:53;;;;;;;;;;;;;;;30.85;33.55;101107.63;5072812;28;1091;-23
2023/09/26 09:46:19;;;;;;;;;;;;;;;30.75;33.38;101112.53;5064571;28;1902;-22
2023/09/26 09:48:45;;;;;;;;;;;;;;;30.73;33.24;101098.34;5043801;28;1056;-22
2023/09/26 09:51:11;;;;;;;;;;;;;;;30.71;33.29;101095.84;5077815;28;1333;-22
2023/09/26 09:53:38;;;;;;;;;;;;;;;30.76;33.45;101089.81;5081601;28;1059;-23
2023/09/26 09:56:04;;;;;;;;;;;;;;;30.76;33.49;101106.09;5064282;28;1186;-22
2023/09/26 09:58:30;;;;;;;;;;;;;;;30.63;33.84;101115.00;5081719;28;1024;-24
2023/09/26 10:00:56;;;;;;;;;;;;;;;30.78;33.56;101112.19;5063731;28;2455;-24
2023/09/26 10:03:22;;;;;;;;;;;;;;;30.06;31.28;101113.06;5056343;28;1134;-22
2023/09/26 10:05:47;;;;;;;;;;;;;;;30.04;33.09;101106.97;5063423;28;1910;-22
2023/09/26 10:08:13;;;;;;;;;;;;;;;30.49;32.97;101116.75;5080259;28;1241;-22
2023/09/26 10:10:38;;;;;;;;;;;;;;;30.70;33.14;101120.47;5079886;28;1102;-22
2023/09/26 10:13:04;;;;;;;;;;;;;;;30.80;33.45;101107.38;5063649;28;1004;-22
2023/09/26 10:15:35;;;;;;;;;;;;;;;30.83;32.98;101103.44;5080958;28;1121;-22
2023/09/26 10:18:01;;;;;;;;;;;;;;;30.86;33.20;101113.91;5051565;28;1080;-22
2023/09/26 10:20:28;;;;;;;;;;;;;;;30.91;33.29;101106.81;5079047;28;1054;-22
2023/09/26 10:23:08;;;;;;;;;;;;;;;30.94;33.55;101110.19;5077615;28;1251;-22
2023/09/26 10:25:35;;;;;;;;;;;;;;;31.06;33.22;101105.88;5077032;28;1492;-22
2023/09/26 10:28:00;;;;;;;;;;;;;;;31.03;33.69;101109.00;5078001;28;1976;-22
2023/09/26 10:30:26;;;;;;;;;;;;;;;31.17;33.25;101109.88;5057485;28;1145;-22
2023/09/26 10:32:52;;;;;;;;;;;;;;;31.32;32.96;101108.88;5076526;28;2505;-22
2023/09/26 10:35:24;;;;;;;;;;;;;;;31.32;33.14;101112.47;5059590;28;1117;-22
2023/09/26 10:37:52;;;;;;;;;;;;;;;31.45;32.99;101113.59;5077980;28;1023;-22
2023/09/26 10:40:18;;;;;;;;;;;;;;;31.49;33.27;101104.81;5059342;28;1063;-22
2023/09/26 10:42:45;;;;;;;;;;;;;;;31.50;32.64;101109.19;5078604;28;1147;-22
2023/09/26 10:45:10;;;;;;;;;;;;;;;31.69;32.41;101120.34;5078048;28;1044;-22
2023/09/26 10:47:38;;;;;;;;;;;;;;;31.69;32.69;101114.06;5077405;28;1910;-22
2023/09/26 10:50:07;;;;;;;;;;;;;;;31.64;33.09;101106.53;5077349;28;1106;-22
2023/09/26 10:52:32;;;;;;;;;;;;;;;31.71;32.99;101111.97;5078285;28;1139;-22
2023/09/26 10:54:58;;;;;;;;;;;;;;;31.75;32.55;101100.47;5077040;28;999;-22
2023/09/26 10:57:23;;;;;;;;;;;;;;;31.71;32.42;101101.94;5059201;28;1130;-22
2023/09/26 10:59:49;;;;;;;;;;;;;;;31.70;32.33;101102.97;5076801;28;1237;-22
2023/09/26 11:02:14;;;;;;;;;;;;;;;31.71;32.25;101099.22;5077741;28;2679;-22
2023/09/26 11:04:40;;;;;;;;;;;;;;;31.82;32.19;101102.38;5077552;28;1020;-23
2023/09/26 11:07:05;;;;;;;;;;;;;;;31.75;31.98;101103.19;5066565;28;1972;-22
2023/09/26 11:09:32;;;;;;;;;;;;;;;31.88;32.29;101094.22;5061491;28;1091;-22
2023/09/26 11:11:58;;;;;;;;;;;;;;;31.82;31.74;101103.22;5074675;28;1142;-22
2023/09/26 11:14:23;;;;;;;;;;;;;;;31.87;32.61;101098.00;5075164;28;1059;-23
2023/09/26 11:16:49;;;;;;;;;;;;;;;31.98;31.92;101099.28;5051114;28;1206;-22
2023/09/26 11:19:15;;;;;;;;;;;;;;;32.03;31.53;101092.38;5074007;28;1119;-22
2023/09/26 11:21:40;;;;;;;;;;;;;;;32.07;32.10;101089.03;5063377;28;1067;-22
2023/09/26 11:24:21;;;;;;;;;;;;;;;32.07;31.44;101093.63;5073545;28;1523;-22
2023/09/26 11:26:48;;;;;;;;;;;;;;;32.25;31.15;101090.28;5076959;28;1902;-22
2023/09/26 11:29:14;;;;;;;;;;;;;;;32.18;31.60;101093.00;5076636;28;1028;-21
2023/09/26 11:31:40;;;;;;;;;;;;;;;32.26;30.65;101086.53;5075416;28;2253;-22
2023/09/26 11:34:05;;;;;;;;;;;;;;;32.24;31.02;101077.72;5077065;28;1199;-22
2023/09/26 11:36:31;;;;;;;;;;;;;;;32.24;30.01;101086.72;5056081;28;1142;-22
2023/09/26 11:38:58;;;;;;;;;;;;;;;32.33;29.96;101076.44;5076190;28;1403;-24
2023/09/26 11:41:23;;;;;;;;;;;;;;;32.44;30.40;101072.25;5075382;28;1199;-24
2023/09/26 11:43:51;;;;;;;;;;;;;;;32.53;29.09;101063.91;5054956;28;1139;-24
2023/09/26 11:46:17;;;;;;;;;;;;;;;32.47;29.58;101068.25;5072948;28;1906;-24
2023/09/26 11:48:42;;;;;;;;;;;;;;;32.54;29.46;101071.84;5071952;28;1095;-24
2023/09/26 11:51:08;;;;;;;;;;;;;;;32.71;29.67;101060.50;5062127;28;1078;-24
2023/09/26 11:53:33;;;;;;;;;;;;;;;32.86;29.20;101074.72;5076089;28;1257;-24
2023/09/26 11:55:59;;;;;;;;;;;;;;;33.08;29.41;101063.53;5076132;28;1113;-22
2023/09/26 11:58:25;;;;;;;;;;;;;;;33.13;28.48;101059.31;5074281;28;1293;-24
2023/09/26 12:00:50;;;;;;;;;;;;;;;33.20;28.20;101065.59;5075387;28;1827;-24
2023/09/26 12:03:16;;;;;;;;;;;;;;;32.94;28.58;101065.44;5076376;28;1289;-23
2023/09/26 12:05:41;;;;;;;;;;;;;;;32.94;28.43;101062.72;5075556;28;1906;-23
2023/09/26 12:08:08;;;;;;;;;;;;;;;32.79;28.43;101062.13;5076199;28;1020;-24
2023/09/26 12:10:34;;;;;;;;;;;;;;;32.87;28.56;101064.63;5075882;28;1094;-24
2023/09/26 12:12:59;;;;;;;;;;;;;;;33.03;28.35;101059.75;5069858;28;1276;-23
2023/09/26 12:15:25;;;;;;;;;;;;;;;32.99;28.63;101057.47;5049595;28;1553;-24
2023/09/26 12:17:54;;;;;;;;;;;;;;;33.48;28.65;101059.75;5075861;28;1184;-24
2023/09/26 12:20:24;;;;;;;;;;;;;;;33.73;28.14;101066.34;5074881;28;1332;-23
2023/09/26 12:22:53;;;;;;;;;;;;;;;33.71;28.03;101066.56;5073479;28;1305;-24
2023/09/26 12:25:19;;;;;;;;;;;;;;;33.71;28.60;101065.72;5067942;28;1042;-23
2023/09/26 12:27:44;;;;;;;;;;;;;;;33.70;29.22;101066.78;5057500;28;1906;-23
2023/09/26 12:30:10;;;;;;;;;;;;;;;33.71;29.01;101082.09;5076092;28;1276;-23
2023/09/26 12:32:36;;;;;;;;;;;;;;;33.45;29.28;101067.56;5075599;28;2599;-23
2023/09/26 12:35:01;;;;;;;;;;;;;;;33.45;29.62;101076.53;5075557;28;1056;-24
2023/09/26 12:37:27;;;;;;;;;;;;;;;33.06;30.17;101068.34;5066209;28;1063;-24
2023/09/26 12:39:53;;;;;;;;;;;;;;;33.14;30.02;101067.28;5071243;28;1340;-23
2023/09/26 12:42:18;;;;;;;;;;;;;;;32.86;30.71;101069.25;5075252;28;1078;-24